sensor_id;sensor_type;location;lat;lon;timestamp;P1;durP1;ratioP1;P2;durP2;ratioP2
11735;SDS011;5924;51.398;7.088;2023-11-22T00:00:27;7.50;;;6.80;;
11735;SDS011;5924;51.398;7.088;2023-11-22T00:02:53;7.60;;;6.60;;
11735;SDS011;5924;51.398;7.088;2023-11-22T00:05:19;11.13;;;7.73;;
11735;SDS011;5924;51.398;7.088;2023-11-22T00:07:44;7.00;;;6.40;;
11735;SDS011;5924;51.398;7.088;2023-11-22T00:10:10;7.07;;;6.53;;
11735;SDS011;5924;51.398;7.088;2023-11-22T00:12:36;6.10;;;5.70;;
11735;SDS011;5924;51.398;7.088;2023-11-22T00:15:06;9.20;;;6.13;;
11735;SDS011;5924;51.398;7.088;2023-11-22T00:17:34;7.83;;;6.70;;
11735;SDS011;5924;51.398;7.088;2023-11-22T00:20:00;8.20;;;7.27;;
11735;SDS011;5924;51.398;7.088;2023-11-22T00:22:30;10.40;;;6.87;;
11735;SDS011;5924;51.398;7.088;2023-11-22T00:24:59;7.77;;;6.57;;
11735;SDS011;5924;51.398;7.088;2023-11-22T00:27:26;8.33;;;7.53;;
11735;SDS011;5924;51.398;7.088;2023-11-22T00:29:56;8.13;;;7.47;;
11735;SDS011;5924;51.398;7.088;2023-11-22T00:32:22;7.77;;;7.07;;
11735;SDS011;5924;51.398;7.088;2023-11-22T00:34:48;7.97;;;7.17;;
11735;SDS011;5924;51.398;7.088;2023-11-22T00:37:14;9.17;;;7.53;;
11735;SDS011;5924;51.398;7.088;2023-11-22T00:39:40;8.23;;;7.30;;
11735;SDS011;5924;51.398;7.088;2023-11-22T00:42:06;8.43;;;7.63;;
11735;SDS011;5924;51.398;7.088;2023-11-22T00:44:32;7.50;;;6.10;;
11735;SDS011;5924;51.398;7.088;2023-11-22T00:46:58;7.30;;;6.70;;
11735;SDS011;5924;51.398;7.088;2023-11-22T00:49:24;9.17;;;7.10;;
11735;SDS011;5924;51.398;7.088;2023-11-22T00:51:49;7.40;;;6.80;;
11735;SDS011;5924;51.398;7.088;2023-11-22T00:54:16;8.20;;;7.50;;
11735;SDS011;5924;51.398;7.088;2023-11-22T00:56:42;8.57;;;7.77;;
11735;SDS011;5924;51.398;7.088;2023-11-22T00:59:07;10.00;;;8.80;;
11735;SDS011;5924;51.398;7.088;2023-11-22T01:01:33;16.47;;;7.83;;
11735;SDS011;5924;51.398;7.088;2023-11-22T01:03:59;9.03;;;7.30;;
11735;SDS011;5924;51.398;7.088;2023-11-22T01:06:25;8.60;;;7.40;;
11735;SDS011;5924;51.398;7.088;2023-11-22T01:08:50;9.33;;;7.13;;
11735;SDS011;5924;51.398;7.088;2023-11-22T01:11:16;8.90;;;7.30;;
11735;SDS011;5924;51.398;7.088;2023-11-22T01:13:42;8.60;;;7.10;;
11735;SDS011;5924;51.398;7.088;2023-11-22T01:16:08;10.07;;;7.37;;
11735;SDS011;5924;51.398;7.088;2023-11-22T01:18:35;9.03;;;7.47;;
11735;SDS011;5924;51.398;7.088;2023-11-22T01:21:01;9.10;;;7.73;;
11735;SDS011;5924;51.398;7.088;2023-11-22T01:23:28;7.43;;;6.73;;
11735;SDS011;5924;51.398;7.088;2023-11-22T01:25:55;6.63;;;6.17;;
11735;SDS011;5924;51.398;7.088;2023-11-22T01:28:20;12.83;;;7.33;;
11735;SDS011;5924;51.398;7.088;2023-11-22T01:30:46;8.60;;;7.67;;
11735;SDS011;5924;51.398;7.088;2023-11-22T01:33:14;7.87;;;7.17;;
11735;SDS011;5924;51.398;7.088;2023-11-22T01:35:40;7.33;;;6.27;;
11735;SDS011;5924;51.398;7.088;2023-11-22T01:38:05;11.17;;;7.27;;
11735;SDS011;5924;51.398;7.088;2023-11-22T01:40:33;8.40;;;7.20;;
11735;SDS011;5924;51.398;7.088;2023-11-22T01:42:59;8.13;;;7.30;;
11735;SDS011;5924;51.398;7.088;2023-11-22T01:45:25;7.97;;;7.27;;
11735;SDS011;5924;51.398;7.088;2023-11-22T01:47:51;18.27;;;9.00;;
11735;SDS011;5924;51.398;7.088;2023-11-22T01:50:17;12.07;;;9.53;;
11735;SDS011;5924;51.398;7.088;2023-11-22T01:52:43;11.37;;;8.57;;
11735;SDS011;5924;51.398;7.088;2023-11-22T01:55:10;9.53;;;8.47;;
11735;SDS011;5924;51.398;7.088;2023-11-22T01:57:38;10.80;;;9.67;;
11735;SDS011;5924;51.398;7.088;2023-11-22T02:00:04;12.77;;;8.80;;
11735;SDS011;5924;51.398;7.088;2023-11-22T02:02:35;13.63;;;9.80;;
11735;SDS011;5924;51.398;7.088;2023-11-22T02:05:01;10.57;;;8.70;;
11735;SDS011;5924;51.398;7.088;2023-11-22T02:07:27;15.80;;;9.57;;
11735;SDS011;5924;51.398;7.088;2023-11-22T02:09:53;8.70;;;7.80;;
11735;SDS011;5924;51.398;7.088;2023-11-22T02:12:19;9.53;;;8.53;;
11735;SDS011;5924;51.398;7.088;2023-11-22T02:14:45;14.30;;;10.57;;
11735;SDS011;5924;51.398;7.088;2023-11-22T02:17:11;15.40;;;11.33;;
11735;SDS011;5924;51.398;7.088;2023-11-22T02:19:37;12.57;;;9.30;;
11735;SDS011;5924;51.398;7.088;2023-11-22T02:22:03;17.53;;;10.63;;
11735;SDS011;5924;51.398;7.088;2023-11-22T02:24:29;14.87;;;10.77;;
11735;SDS011;5924;51.398;7.088;2023-11-22T02:26:54;18.13;;;10.97;;
11735;SDS011;5924;51.398;7.088;2023-11-22T02:29:20;18.80;;;10.63;;
11735;SDS011;5924;51.398;7.088;2023-11-22T02:31:47;14.87;;;10.63;;
11735;SDS011;5924;51.398;7.088;2023-11-22T02:34:13;15.70;;;10.40;;
11735;SDS011;5924;51.398;7.088;2023-11-22T02:36:41;17.37;;;10.77;;
11735;SDS011;5924;51.398;7.088;2023-11-22T02:39:08;15.00;;;10.10;;
11735;SDS011;5924;51.398;7.088;2023-11-22T02:41:34;18.90;;;11.43;;
11735;SDS011;5924;51.398;7.088;2023-11-22T02:44:00;16.03;;;10.37;;
11735;SDS011;5924;51.398;7.088;2023-11-22T02:46:26;16.53;;;10.63;;
11735;SDS011;5924;51.398;7.088;2023-11-22T02:48:51;14.03;;;9.80;;
11735;SDS011;5924;51.398;7.088;2023-11-22T02:51:19;16.47;;;10.10;;
11735;SDS011;5924;51.398;7.088;2023-11-22T02:53:46;15.90;;;10.23;;
11735;SDS011;5924;51.398;7.088;2023-11-22T02:56:13;16.03;;;9.47;;
11735;SDS011;5924;51.398;7.088;2023-11-22T02:58:39;13.80;;;9.77;;
11735;SDS011;5924;51.398;7.088;2023-11-22T03:01:05;18.50;;;11.07;;
11735;SDS011;5924;51.398;7.088;2023-11-22T03:03:34;15.03;;;10.10;;
11735;SDS011;5924;51.398;7.088;2023-11-22T03:06:00;17.20;;;10.97;;
11735;SDS011;5924;51.398;7.088;2023-11-22T03:08:26;15.30;;;10.07;;
11735;SDS011;5924;51.398;7.088;2023-11-22T03:10:52;17.27;;;11.17;;
11735;SDS011;5924;51.398;7.088;2023-11-22T03:13:18;24.50;;;12.83;;
11735;SDS011;5924;51.398;7.088;2023-11-22T03:15:44;28.70;;;13.13;;
11735;SDS011;5924;51.398;7.088;2023-11-22T03:18:09;20.50;;;12.00;;
11735;SDS011;5924;51.398;7.088;2023-11-22T03:20:36;16.33;;;11.67;;
11735;SDS011;5924;51.398;7.088;2023-11-22T03:23:02;20.03;;;12.50;;
11735;SDS011;5924;51.398;7.088;2023-11-22T03:25:29;19.30;;;11.87;;
11735;SDS011;5924;51.398;7.088;2023-11-22T03:27:55;15.60;;;11.37;;
11735;SDS011;5924;51.398;7.088;2023-11-22T03:30:21;19.83;;;11.97;;
11735;SDS011;5924;51.398;7.088;2023-11-22T03:32:46;16.00;;;10.20;;
11735;SDS011;5924;51.398;7.088;2023-11-22T03:35:12;14.93;;;10.50;;
11735;SDS011;5924;51.398;7.088;2023-11-22T03:37:38;16.27;;;10.30;;
11735;SDS011;5924;51.398;7.088;2023-11-22T03:40:04;13.60;;;9.97;;
11735;SDS011;5924;51.398;7.088;2023-11-22T03:42:30;17.47;;;10.53;;
11735;SDS011;5924;51.398;7.088;2023-11-22T03:44:56;18.57;;;9.40;;
11735;SDS011;5924;51.398;7.088;2023-11-22T03:47:24;15.57;;;10.00;;
11735;SDS011;5924;51.398;7.088;2023-11-22T03:49:49;12.47;;;9.33;;
11735;SDS011;5924;51.398;7.088;2023-11-22T03:52:15;19.87;;;10.23;;
11735;SDS011;5924;51.398;7.088;2023-11-22T03:54:41;14.43;;;10.77;;
11735;SDS011;5924;51.398;7.088;2023-11-22T03:57:06;16.47;;;9.87;;
11735;SDS011;5924;51.398;7.088;2023-11-22T03:59:33;15.47;;;10.67;;
11735;SDS011;5924;51.398;7.088;2023-11-22T04:01:59;14.27;;;9.67;;
11735;SDS011;5924;51.398;7.088;2023-11-22T04:04:25;13.10;;;8.83;;
11735;SDS011;5924;51.398;7.088;2023-11-22T04:06:51;15.63;;;9.87;;
11735;SDS011;5924;51.398;7.088;2023-11-22T04:09:17;16.17;;;9.87;;
11735;SDS011;5924;51.398;7.088;2023-11-22T04:11:45;10.63;;;8.33;;
11735;SDS011;5924;51.398;7.088;2023-11-22T04:14:11;16.50;;;9.20;;
11735;SDS011;5924;51.398;7.088;2023-11-22T04:16:37;12.57;;;9.30;;
11735;SDS011;5924;51.398;7.088;2023-11-22T04:19:02;13.53;;;7.50;;
11735;SDS011;5924;51.398;7.088;2023-11-22T04:21:28;14.47;;;9.33;;
11735;SDS011;5924;51.398;7.088;2023-11-22T04:23:54;14.37;;;8.37;;
11735;SDS011;5924;51.398;7.088;2023-11-22T04:26:19;11.23;;;8.70;;
11735;SDS011;5924;51.398;7.088;2023-11-22T04:28:45;12.27;;;8.90;;
11735;SDS011;5924;51.398;7.088;2023-11-22T04:31:11;11.50;;;9.03;;
11735;SDS011;5924;51.398;7.088;2023-11-22T04:33:37;12.17;;;8.47;;
11735;SDS011;5924;51.398;7.088;2023-11-22T04:36:03;10.17;;;8.20;;
11735;SDS011;5924;51.398;7.088;2023-11-22T04:38:29;18.30;;;7.93;;
11735;SDS011;5924;51.398;7.088;2023-11-22T04:40:55;10.83;;;8.17;;
11735;SDS011;5924;51.398;7.088;2023-11-22T04:43:20;10.43;;;8.00;;
11735;SDS011;5924;51.398;7.088;2023-11-22T04:45:46;9.93;;;6.70;;
11735;SDS011;5924;51.398;7.088;2023-11-22T04:48:12;10.87;;;7.37;;
11735;SDS011;5924;51.398;7.088;2023-11-22T04:50:40;9.10;;;7.07;;
11735;SDS011;5924;51.398;7.088;2023-11-22T04:53:06;11.87;;;7.70;;
11735;SDS011;5924;51.398;7.088;2023-11-22T04:55:31;9.17;;;7.23;;
11735;SDS011;5924;51.398;7.088;2023-11-22T04:57:57;10.47;;;7.80;;
11735;SDS011;5924;51.398;7.088;2023-11-22T05:00:23;8.50;;;6.83;;
11735;SDS011;5924;51.398;7.088;2023-11-22T05:02:49;8.30;;;7.40;;
11735;SDS011;5924;51.398;7.088;2023-11-22T05:05:14;11.00;;;7.97;;
11735;SDS011;5924;51.398;7.088;2023-11-22T05:07:40;8.93;;;7.20;;
11735;SDS011;5924;51.398;7.088;2023-11-22T05:10:06;7.80;;;6.50;;
11735;SDS011;5924;51.398;7.088;2023-11-22T05:12:35;8.70;;;6.97;;
11735;SDS011;5924;51.398;7.088;2023-11-22T05:15:01;9.37;;;7.13;;
11735;SDS011;5924;51.398;7.088;2023-11-22T05:17:27;11.30;;;7.40;;
11735;SDS011;5924;51.398;7.088;2023-11-22T05:19:53;10.17;;;7.50;;
11735;SDS011;5924;51.398;7.088;2023-11-22T05:22:19;9.80;;;7.87;;
11735;SDS011;5924;51.398;7.088;2023-11-22T05:24:44;13.53;;;8.20;;
11735;SDS011;5924;51.398;7.088;2023-11-22T05:27:10;11.40;;;7.93;;
11735;SDS011;5924;51.398;7.088;2023-11-22T05:29:36;20.23;;;9.00;;
11735;SDS011;5924;51.398;7.088;2023-11-22T05:32:03;11.80;;;7.13;;
11735;SDS011;5924;51.398;7.088;2023-11-22T05:34:29;8.27;;;7.33;;
11735;SDS011;5924;51.398;7.088;2023-11-22T05:36:55;11.40;;;7.60;;
11735;SDS011;5924;51.398;7.088;2023-11-22T05:39:20;15.30;;;6.60;;
11735;SDS011;5924;51.398;7.088;2023-11-22T05:41:47;13.57;;;6.87;;
11735;SDS011;5924;51.398;7.088;2023-11-22T05:44:13;8.43;;;7.50;;
11735;SDS011;5924;51.398;7.088;2023-11-22T05:46:39;12.07;;;7.23;;
11735;SDS011;5924;51.398;7.088;2023-11-22T05:49:05;11.10;;;7.27;;
11735;SDS011;5924;51.398;7.088;2023-11-22T05:51:31;10.77;;;7.87;;
11735;SDS011;5924;51.398;7.088;2023-11-22T05:53:57;13.77;;;8.50;;
11735;SDS011;5924;51.398;7.088;2023-11-22T05:56:23;10.03;;;7.50;;
11735;SDS011;5924;51.398;7.088;2023-11-22T05:58:48;11.30;;;7.17;;
11735;SDS011;5924;51.398;7.088;2023-11-22T06:01:14;19.03;;;9.37;;
11735;SDS011;5924;51.398;7.088;2023-11-22T06:03:40;19.83;;;9.63;;
11735;SDS011;5924;51.398;7.088;2023-11-22T06:06:06;22.23;;;9.00;;
11735;SDS011;5924;51.398;7.088;2023-11-22T06:08:32;20.47;;;9.87;;
11735;SDS011;5924;51.398;7.088;2023-11-22T06:10:58;18.93;;;9.90;;
11735;SDS011;5924;51.398;7.088;2023-11-22T06:13:24;14.47;;;8.97;;
11735;SDS011;5924;51.398;7.088;2023-11-22T06:15:51;17.43;;;9.30;;
11735;SDS011;5924;51.398;7.088;2023-11-22T06:18:17;16.40;;;9.40;;
11735;SDS011;5924;51.398;7.088;2023-11-22T06:20:44;15.93;;;8.40;;
11735;SDS011;5924;51.398;7.088;2023-11-22T06:23:10;10.87;;;8.00;;
11735;SDS011;5924;51.398;7.088;2023-11-22T06:25:36;12.17;;;8.20;;
11735;SDS011;5924;51.398;7.088;2023-11-22T06:28:02;16.37;;;9.33;;
11735;SDS011;5924;51.398;7.088;2023-11-22T06:30:28;21.23;;;10.97;;
11735;SDS011;5924;51.398;7.088;2023-11-22T06:32:55;20.80;;;11.43;;
11735;SDS011;5924;51.398;7.088;2023-11-22T06:35:21;20.50;;;11.03;;
11735;SDS011;5924;51.398;7.088;2023-11-22T06:37:47;15.50;;;9.43;;
11735;SDS011;5924;51.398;7.088;2023-11-22T06:40:12;16.33;;;8.77;;
11735;SDS011;5924;51.398;7.088;2023-11-22T06:42:39;13.87;;;8.53;;
11735;SDS011;5924;51.398;7.088;2023-11-22T06:45:08;14.17;;;8.10;;
11735;SDS011;5924;51.398;7.088;2023-11-22T06:47:43;17.70;;;9.50;;
11735;SDS011;5924;51.398;7.088;2023-11-22T06:50:09;15.57;;;8.50;;
11735;SDS011;5924;51.398;7.088;2023-11-22T06:52:35;15.67;;;7.70;;
11735;SDS011;5924;51.398;7.088;2023-11-22T06:55:05;13.03;;;8.30;;
11735;SDS011;5924;51.398;7.088;2023-11-22T06:57:33;14.83;;;8.57;;
11735;SDS011;5924;51.398;7.088;2023-11-22T06:59:58;11.70;;;8.37;;
11735;SDS011;5924;51.398;7.088;2023-11-22T07:02:26;14.43;;;8.40;;
11735;SDS011;5924;51.398;7.088;2023-11-22T07:04:51;12.03;;;7.90;;
11735;SDS011;5924;51.398;7.088;2023-11-22T07:07:18;17.50;;;8.80;;
11735;SDS011;5924;51.398;7.088;2023-11-22T07:09:44;19.43;;;9.80;;
11735;SDS011;5924;51.398;7.088;2023-11-22T07:12:11;16.67;;;9.03;;
11735;SDS011;5924;51.398;7.088;2023-11-22T07:14:37;13.23;;;7.90;;
11735;SDS011;5924;51.398;7.088;2023-11-22T07:17:03;19.70;;;8.67;;
11735;SDS011;5924;51.398;7.088;2023-11-22T07:19:31;13.07;;;8.40;;
11735;SDS011;5924;51.398;7.088;2023-11-22T07:21:59;18.27;;;8.50;;
11735;SDS011;5924;51.398;7.088;2023-11-22T07:24:25;14.00;;;8.93;;
11735;SDS011;5924;51.398;7.088;2023-11-22T07:26:50;13.40;;;8.20;;
11735;SDS011;5924;51.398;7.088;2023-11-22T07:29:16;16.13;;;8.53;;
11735;SDS011;5924;51.398;7.088;2023-11-22T07:31:41;15.67;;;8.30;;
11735;SDS011;5924;51.398;7.088;2023-11-22T07:34:07;14.00;;;9.30;;
11735;SDS011;5924;51.398;7.088;2023-11-22T07:36:36;19.77;;;9.90;;
11735;SDS011;5924;51.398;7.088;2023-11-22T07:39:03;15.70;;;9.53;;
11735;SDS011;5924;51.398;7.088;2023-11-22T07:41:29;19.27;;;9.77;;
11735;SDS011;5924;51.398;7.088;2023-11-22T07:43:56;20.27;;;9.97;;
11735;SDS011;5924;51.398;7.088;2023-11-22T07:46:22;15.83;;;9.53;;
11735;SDS011;5924;51.398;7.088;2023-11-22T07:48:47;36.33;;;10.57;;
11735;SDS011;5924;51.398;7.088;2023-11-22T07:51:14;12.27;;;8.53;;
11735;SDS011;5924;51.398;7.088;2023-11-22T07:53:43;16.20;;;9.47;;
11735;SDS011;5924;51.398;7.088;2023-11-22T07:56:09;14.07;;;8.90;;
11735;SDS011;5924;51.398;7.088;2023-11-22T07:58:36;12.97;;;8.67;;
11735;SDS011;5924;51.398;7.088;2023-11-22T08:01:03;18.47;;;9.50;;
11735;SDS011;5924;51.398;7.088;2023-11-22T08:03:31;19.20;;;8.73;;
11735;SDS011;5924;51.398;7.088;2023-11-22T08:05:57;15.90;;;9.13;;
11735;SDS011;5924;51.398;7.088;2023-11-22T08:08:22;19.53;;;10.00;;
11735;SDS011;5924;51.398;7.088;2023-11-22T08:10:49;17.53;;;9.40;;
11735;SDS011;5924;51.398;7.088;2023-11-22T08:13:18;15.57;;;8.40;;
11735;SDS011;5924;51.398;7.088;2023-11-22T08:15:48;16.03;;;8.93;;
11735;SDS011;5924;51.398;7.088;2023-11-22T08:18:14;15.80;;;9.60;;
11735;SDS011;5924;51.398;7.088;2023-11-22T08:20:41;15.47;;;8.70;;
11735;SDS011;5924;51.398;7.088;2023-11-22T08:23:08;11.40;;;8.97;;
11735;SDS011;5924;51.398;7.088;2023-11-22T08:25:35;18.03;;;9.90;;
11735;SDS011;5924;51.398;7.088;2023-11-22T08:28:03;14.00;;;7.83;;
11735;SDS011;5924;51.398;7.088;2023-11-22T08:30:29;16.83;;;10.13;;
11735;SDS011;5924;51.398;7.088;2023-11-22T08:32:57;13.27;;;8.70;;
11735;SDS011;5924;51.398;7.088;2023-11-22T08:35:23;20.20;;;10.30;;
11735;SDS011;5924;51.398;7.088;2023-11-22T08:37:49;22.63;;;11.47;;
11735;SDS011;5924;51.398;7.088;2023-11-22T08:40:15;15.37;;;9.50;;
11735;SDS011;5924;51.398;7.088;2023-11-22T08:42:50;22.17;;;9.70;;
11735;SDS011;5924;51.398;7.088;2023-11-22T08:45:16;22.17;;;9.67;;
11735;SDS011;5924;51.398;7.088;2023-11-22T08:47:42;13.67;;;9.27;;
11735;SDS011;5924;51.398;7.088;2023-11-22T08:50:08;18.03;;;10.70;;
11735;SDS011;5924;51.398;7.088;2023-11-22T08:52:40;23.33;;;12.00;;
11735;SDS011;5924;51.398;7.088;2023-11-22T08:55:07;22.40;;;11.80;;
11735;SDS011;5924;51.398;7.088;2023-11-22T08:57:35;27.57;;;11.73;;
11735;SDS011;5924;51.398;7.088;2023-11-22T09:00:02;22.57;;;12.10;;
11735;SDS011;5924;51.398;7.088;2023-11-22T09:02:34;19.63;;;11.03;;
11735;SDS011;5924;51.398;7.088;2023-11-22T09:05:01;18.73;;;10.80;;
11735;SDS011;5924;51.398;7.088;2023-11-22T09:07:31;22.23;;;10.77;;
11735;SDS011;5924;51.398;7.088;2023-11-22T09:09:56;22.17;;;10.93;;
11735;SDS011;5924;51.398;7.088;2023-11-22T09:12:23;23.60;;;12.00;;
11735;SDS011;5924;51.398;7.088;2023-11-22T09:14:48;21.03;;;11.33;;
11735;SDS011;5924;51.398;7.088;2023-11-22T09:17:14;20.10;;;10.73;;
11735;SDS011;5924;51.398;7.088;2023-11-22T09:19:40;22.80;;;10.37;;
11735;SDS011;5924;51.398;7.088;2023-11-22T09:22:05;16.73;;;10.07;;
11735;SDS011;5924;51.398;7.088;2023-11-22T09:24:32;19.80;;;10.57;;
11735;SDS011;5924;51.398;7.088;2023-11-22T09:26:58;20.13;;;10.80;;
11735;SDS011;5924;51.398;7.088;2023-11-22T09:29:25;22.70;;;9.30;;
11735;SDS011;5924;51.398;7.088;2023-11-22T09:31:51;14.50;;;9.20;;
11735;SDS011;5924;51.398;7.088;2023-11-22T09:34:17;18.23;;;9.63;;
11735;SDS011;5924;51.398;7.088;2023-11-22T09:36:43;16.80;;;9.17;;
11735;SDS011;5924;51.398;7.088;2023-11-22T09:39:09;11.27;;;8.33;;
11735;SDS011;5924;51.398;7.088;2023-11-22T09:41:35;17.20;;;8.10;;
11735;SDS011;5924;51.398;7.088;2023-11-22T09:44:01;13.00;;;8.27;;
11735;SDS011;5924;51.398;7.088;2023-11-22T09:46:27;16.67;;;9.00;;
11735;SDS011;5924;51.398;7.088;2023-11-22T09:48:55;10.53;;;7.40;;
11735;SDS011;5924;51.398;7.088;2023-11-22T09:51:26;14.70;;;8.10;;
11735;SDS011;5924;51.398;7.088;2023-11-22T09:56:25;9.20;;;7.37;;
11735;SDS011;5924;51.398;7.088;2023-11-22T09:58:52;6.87;;;6.27;;
11735;SDS011;5924;51.398;7.088;2023-11-22T10:01:22;7.83;;;6.73;;
11735;SDS011;5924;51.398;7.088;2023-11-22T10:03:48;10.00;;;7.10;;
11735;SDS011;5924;51.398;7.088;2023-11-22T10:06:14;6.53;;;5.93;;
11735;SDS011;5924;51.398;7.088;2023-11-22T10:08:41;9.57;;;6.40;;
11735;SDS011;5924;51.398;7.088;2023-11-22T10:11:06;7.73;;;6.30;;
11735;SDS011;5924;51.398;7.088;2023-11-22T10:13:33;15.50;;;6.60;;
11735;SDS011;5924;51.398;7.088;2023-11-22T10:16:08;7.30;;;5.63;;
11735;SDS011;5924;51.398;7.088;2023-11-22T10:18:38;8.87;;;5.27;;
11735;SDS011;5924;51.398;7.088;2023-11-22T10:21:15;5.13;;;4.70;;
11735;SDS011;5924;51.398;7.088;2023-11-22T10:23:54;9.97;;;5.60;;
11735;SDS011;5924;51.398;7.088;2023-11-22T10:26:21;5.33;;;4.90;;
11735;SDS011;5924;51.398;7.088;2023-11-22T10:28:50;5.67;;;5.20;;
11735;SDS011;5924;51.398;7.088;2023-11-22T10:31:17;4.53;;;3.97;;
11735;SDS011;5924;51.398;7.088;2023-11-22T10:33:44;5.10;;;4.83;;
11735;SDS011;5924;51.398;7.088;2023-11-22T10:36:10;4.77;;;4.37;;
11735;SDS011;5924;51.398;7.088;2023-11-22T10:38:37;5.37;;;4.87;;
11735;SDS011;5924;51.398;7.088;2023-11-22T10:41:12;6.60;;;4.43;;
11735;SDS011;5924;51.398;7.088;2023-11-22T10:43:38;7.97;;;4.63;;
11735;SDS011;5924;51.398;7.088;2023-11-22T10:46:06;5.20;;;4.90;;
11735;SDS011;5924;51.398;7.088;2023-11-22T10:48:36;3.70;;;3.50;;
11735;SDS011;5924;51.398;7.088;2023-11-22T10:51:03;3.63;;;3.40;;
11735;SDS011;5924;51.398;7.088;2023-11-22T10:53:34;4.03;;;3.63;;
11735;SDS011;5924;51.398;7.088;2023-11-22T10:56:16;3.70;;;3.47;;
11735;SDS011;5924;51.398;7.088;2023-11-22T11:01:24;6.83;;;3.67;;
11735;SDS011;5924;51.398;7.088;2023-11-22T11:04:00;3.50;;;3.40;;
11735;SDS011;5924;51.398;7.088;2023-11-22T11:06:32;3.47;;;3.23;;
11735;SDS011;5924;51.398;7.088;2023-11-22T11:09:00;2.90;;;2.80;;
11735;SDS011;5924;51.398;7.088;2023-11-22T11:11:30;2.60;;;2.50;;
11735;SDS011;5924;51.398;7.088;2023-11-22T11:13:58;2.87;;;2.77;;
11735;SDS011;5924;51.398;7.088;2023-11-22T11:16:26;2.70;;;2.60;;
11735;SDS011;5924;51.398;7.088;2023-11-22T11:18:53;2.87;;;2.77;;
11735;SDS011;5924;51.398;7.088;2023-11-22T11:21:19;2.60;;;2.60;;
11735;SDS011;5924;51.398;7.088;2023-11-22T11:23:45;2.73;;;2.63;;
11735;SDS011;5924;51.398;7.088;2023-11-22T11:26:15;3.07;;;2.90;;
11735;SDS011;5924;51.398;7.088;2023-11-22T11:28:43;2.90;;;2.80;;
11735;SDS011;5924;51.398;7.088;2023-11-22T11:31:13;3.63;;;3.10;;
11735;SDS011;5924;51.398;7.088;2023-11-22T11:38:54;4.10;;;2.70;;
11735;SDS011;5924;51.398;7.088;2023-11-22T11:41:27;4.27;;;3.47;;
11735;SDS011;5924;51.398;7.088;2023-11-22T11:43:55;3.43;;;3.17;;
11735;SDS011;5924;51.398;7.088;2023-11-22T11:46:22;4.70;;;2.70;;
11735;SDS011;5924;51.398;7.088;2023-11-22T11:48:48;3.10;;;2.90;;
11735;SDS011;5924;51.398;7.088;2023-11-22T11:51:18;3.80;;;2.80;;
11735;SDS011;5924;51.398;7.088;2023-11-22T11:53:46;3.17;;;2.97;;
11735;SDS011;5924;51.398;7.088;2023-11-22T11:56:12;2.93;;;2.83;;
11735;SDS011;5924;51.398;7.088;2023-11-22T11:58:38;7.70;;;3.70;;
11735;SDS011;5924;51.398;7.088;2023-11-22T12:01:06;3.77;;;3.23;;
11735;SDS011;5924;51.398;7.088;2023-11-22T12:03:35;2.80;;;2.70;;
11735;SDS011;5924;51.398;7.088;2023-11-22T12:06:01;3.20;;;3.10;;
11735;SDS011;5924;51.398;7.088;2023-11-22T12:08:27;3.23;;;3.03;;
11735;SDS011;5924;51.398;7.088;2023-11-22T12:10:56;2.97;;;2.87;;
11735;SDS011;5924;51.398;7.088;2023-11-22T12:13:24;3.77;;;3.63;;
11735;SDS011;5924;51.398;7.088;2023-11-22T12:15:51;2.93;;;2.83;;
11735;SDS011;5924;51.398;7.088;2023-11-22T12:18:19;2.60;;;2.50;;
11735;SDS011;5924;51.398;7.088;2023-11-22T12:20:57;2.90;;;2.80;;
11735;SDS011;5924;51.398;7.088;2023-11-22T12:23:24;3.23;;;3.03;;
11735;SDS011;5924;51.398;7.088;2023-11-22T12:25:59;3.43;;;3.23;;
11735;SDS011;5924;51.398;7.088;2023-11-22T12:28:27;2.90;;;2.80;;
11735;SDS011;5924;51.398;7.088;2023-11-22T12:30:54;4.93;;;2.90;;
11735;SDS011;5924;51.398;7.088;2023-11-22T12:33:20;2.60;;;2.50;;
11735;SDS011;5924;51.398;7.088;2023-11-22T12:35:46;4.33;;;2.47;;
11735;SDS011;5924;51.398;7.088;2023-11-22T12:38:13;2.93;;;2.83;;
11735;SDS011;5924;51.398;7.088;2023-11-22T12:40:48;3.07;;;2.97;;
11735;SDS011;5924;51.398;7.088;2023-11-22T12:43:14;4.60;;;3.10;;
11735;SDS011;5924;51.398;7.088;2023-11-22T12:45:40;3.30;;;3.20;;
11735;SDS011;5924;51.398;7.088;2023-11-22T12:48:22;6.97;;;4.60;;
11735;SDS011;5924;51.398;7.088;2023-11-22T12:50:49;5.07;;;4.53;;
11735;SDS011;5924;51.398;7.088;2023-11-22T12:53:16;3.00;;;2.80;;
11735;SDS011;5924;51.398;7.088;2023-11-22T12:55:42;3.00;;;2.80;;
11735;SDS011;5924;51.398;7.088;2023-11-22T12:58:09;2.50;;;2.40;;
11735;SDS011;5924;51.398;7.088;2023-11-22T13:00:35;1.80;;;1.70;;
11735;SDS011;5924;51.398;7.088;2023-11-22T13:03:01;2.10;;;2.00;;
11735;SDS011;5924;51.398;7.088;2023-11-22T13:05:27;3.60;;;2.50;;
11735;SDS011;5924;51.398;7.088;2023-11-22T13:07:53;2.00;;;1.97;;
11735;SDS011;5924;51.398;7.088;2023-11-22T13:10:18;2.37;;;2.30;;
11735;SDS011;5924;51.398;7.088;2023-11-22T13:12:49;2.73;;;1.40;;
11735;SDS011;5924;51.398;7.088;2023-11-22T13:15:16;2.00;;;2.00;;
11735;SDS011;5924;51.398;7.088;2023-11-22T13:17:42;1.70;;;1.70;;
11735;SDS011;5924;51.398;7.088;2023-11-22T13:20:08;2.13;;;1.77;;
11735;SDS011;5924;51.398;7.088;2023-11-22T13:22:43;3.33;;;1.80;;
11735;SDS011;5924;51.398;7.088;2023-11-22T13:25:10;3.27;;;1.60;;
11735;SDS011;5924;51.398;7.088;2023-11-22T13:27:36;1.50;;;1.50;;
11735;SDS011;5924;51.398;7.088;2023-11-22T13:30:02;1.50;;;1.47;;
11735;SDS011;5924;51.398;7.088;2023-11-22T13:32:30;1.40;;;1.40;;
11735;SDS011;5924;51.398;7.088;2023-11-22T13:34:56;1.63;;;1.50;;
11735;SDS011;5924;51.398;7.088;2023-11-22T13:37:22;2.60;;;1.87;;
11735;SDS011;5924;51.398;7.088;2023-11-22T13:39:49;2.00;;;1.90;;
11735;SDS011;5924;51.398;7.088;2023-11-22T13:42:14;1.67;;;1.57;;
11735;SDS011;5924;51.398;7.088;2023-11-22T13:44:40;1.73;;;1.73;;
11735;SDS011;5924;51.398;7.088;2023-11-22T13:47:12;4.30;;;1.60;;
11735;SDS011;5924;51.398;7.088;2023-11-22T13:49:39;2.00;;;1.30;;
11735;SDS011;5924;51.398;7.088;2023-11-22T13:52:05;1.80;;;1.70;;
11735;SDS011;5924;51.398;7.088;2023-11-22T13:54:30;1.97;;;1.87;;
11735;SDS011;5924;51.398;7.088;2023-11-22T13:56:59;4.87;;;2.57;;
11735;SDS011;5924;51.398;7.088;2023-11-22T13:59:24;2.37;;;2.20;;
11735;SDS011;5924;51.398;7.088;2023-11-22T14:01:51;2.80;;;2.70;;
11735;SDS011;5924;51.398;7.088;2023-11-22T14:04:17;5.40;;;2.57;;
11735;SDS011;5924;51.398;7.088;2023-11-22T14:06:42;2.20;;;2.20;;
11735;SDS011;5924;51.398;7.088;2023-11-22T14:09:08;2.50;;;2.40;;
11735;SDS011;5924;51.398;7.088;2023-11-22T14:11:37;3.13;;;2.80;;
11735;SDS011;5924;51.398;7.088;2023-11-22T14:14:03;2.40;;;2.33;;
11735;SDS011;5924;51.398;7.088;2023-11-22T14:16:29;2.93;;;2.63;;
11735;SDS011;5924;51.398;7.088;2023-11-22T14:18:59;13.13;;;2.27;;
11735;SDS011;5924;51.398;7.088;2023-11-22T14:21:25;2.93;;;2.73;;
11735;SDS011;5924;51.398;7.088;2023-11-22T14:23:51;2.60;;;2.60;;
11735;SDS011;5924;51.398;7.088;2023-11-22T14:26:18;3.00;;;2.80;;
11735;SDS011;5924;51.398;7.088;2023-11-22T14:28:43;2.30;;;2.20;;
11735;SDS011;5924;51.398;7.088;2023-11-22T14:31:09;2.10;;;2.00;;
11735;SDS011;5924;51.398;7.088;2023-11-22T14:33:35;2.40;;;2.30;;
11735;SDS011;5924;51.398;7.088;2023-11-22T14:36:01;2.77;;;2.53;;
11735;SDS011;5924;51.398;7.088;2023-11-22T14:38:27;2.20;;;2.10;;
11735;SDS011;5924;51.398;7.088;2023-11-22T14:40:52;2.40;;;2.30;;
11735;SDS011;5924;51.398;7.088;2023-11-22T14:43:18;2.20;;;2.20;;
11735;SDS011;5924;51.398;7.088;2023-11-22T14:45:44;2.17;;;2.07;;
11735;SDS011;5924;51.398;7.088;2023-11-22T14:48:10;2.20;;;2.03;;
11735;SDS011;5924;51.398;7.088;2023-11-22T14:50:38;2.40;;;2.20;;
11735;SDS011;5924;51.398;7.088;2023-11-22T14:53:06;1.87;;;1.87;;
11735;SDS011;5924;51.398;7.088;2023-11-22T14:55:32;4.10;;;1.67;;
11735;SDS011;5924;51.398;7.088;2023-11-22T14:58:03;2.17;;;2.10;;
11735;SDS011;5924;51.398;7.088;2023-11-22T15:00:30;2.10;;;2.03;;